Monterey Peninsula Airport
KMRY : now visible

Airfield :











YOU CAN JOIN US ON...

 
LOGIN :

Register | Disclaimer

   EN    FR    IT 

 









Legend :    VFR   Marginal VFR   IFR   Intensive IFR   Very Intensive IFR
Visi :
Ceiling :
>= 8 km
>= 3000ft
5 to 8 km
1000 to 3000 ft
1500m to 5 km
500 to 1000 ft
800 to 1500m
200 to 500 ft
< 800m
< 200 ft
Symbols :   Thunderstorms  Fog  Heavy snow  Heavy precipitations  Wind > 20 kt






- Airport Elevation : 257 ft
- IATA code : MRY


KMRY - Monterey Peninsula

CURRENT METAR :
  • 160954Z AUTO 10005KT 10SM CLR 08/04 A3028 RMK AO2 SLP269 T00830044

EXPIRED METARs :
  • 160854Z AUTO 12007KT 10SM CLR 08/04 A3028 RMK AO2 SLP266 T00780044 50005
  • 160754Z AUTO 12007KT 10SM CLR 08/05 A3028 RMK AO2 SLP267 T00830050 401440078

TAF KMRY
Valid from the 16 at 06:00 until the 17 at 06:00 UTC


160524Z 1606/1706 11005KT P6SM SCT030 SCT200
FM161200 10005KT P6SM FEW030 FEW200
FM162000 32007KT P6SM FEW200
FM170400 10005KT P6SM FEW200



MET'MAP, your aeronautical weather chart ! - Copyright ORBIFLY December 2007 - Disclaimer

ORBIFLY MET'MAP TEAM :

Programming & Development : Alexandra Zaïnal
Concept & original design : Baudouin d'Aumeries
Assistance for programming : Marc-Olivier Méhu
Technical & hardware support : Manuel Goepfert

Contact : metmap@orbifly.com




SOURCES & CREDITS :

   NOAA       Earth
Advisory